sensor_id;sensor_type;location;lat;lon;timestamp;P1;durP1;ratioP1;P2;durP2;ratioP2
6505;SDS011;3286;49.858;8.768;2024-01-07T00:00:34;5.10;;;3.33;;
6505;SDS011;3286;49.858;8.768;2024-01-07T00:03:01;6.10;;;3.53;;
6505;SDS011;3286;49.858;8.768;2024-01-07T00:05:27;6.47;;;3.37;;
6505;SDS011;3286;49.858;8.768;2024-01-07T00:07:54;5.17;;;3.40;;
6505;SDS011;3286;49.858;8.768;2024-01-07T00:10:21;5.90;;;3.37;;
6505;SDS011;3286;49.858;8.768;2024-01-07T00:12:47;5.20;;;3.60;;
6505;SDS011;3286;49.858;8.768;2024-01-07T00:15:18;7.20;;;3.93;;
6505;SDS011;3286;49.858;8.768;2024-01-07T00:17:44;6.17;;;3.80;;
6505;SDS011;3286;49.858;8.768;2024-01-07T00:20:12;5.00;;;4.00;;
6505;SDS011;3286;49.858;8.768;2024-01-07T00:22:39;5.50;;;3.80;;
6505;SDS011;3286;49.858;8.768;2024-01-07T00:25:06;6.47;;;3.97;;
6505;SDS011;3286;49.858;8.768;2024-01-07T00:27:33;7.20;;;4.53;;
6505;SDS011;3286;49.858;8.768;2024-01-07T00:30:00;7.57;;;4.00;;
6505;SDS011;3286;49.858;8.768;2024-01-07T00:32:28;5.03;;;3.63;;
6505;SDS011;3286;49.858;8.768;2024-01-07T00:34:55;5.53;;;3.83;;
6505;SDS011;3286;49.858;8.768;2024-01-07T00:37:22;8.73;;;4.00;;
6505;SDS011;3286;49.858;8.768;2024-01-07T00:39:50;5.63;;;3.77;;
6505;SDS011;3286;49.858;8.768;2024-01-07T00:42:17;5.90;;;4.07;;
6505;SDS011;3286;49.858;8.768;2024-01-07T00:44:43;6.10;;;4.10;;
6505;SDS011;3286;49.858;8.768;2024-01-07T00:47:10;5.47;;;3.93;;
6505;SDS011;3286;49.858;8.768;2024-01-07T00:49:39;5.47;;;3.83;;
6505;SDS011;3286;49.858;8.768;2024-01-07T00:52:06;7.37;;;3.90;;
6505;SDS011;3286;49.858;8.768;2024-01-07T00:54:34;8.80;;;3.87;;
6505;SDS011;3286;49.858;8.768;2024-01-07T00:57:10;7.93;;;3.90;;
6505;SDS011;3286;49.858;8.768;2024-01-07T00:59:37;4.60;;;3.40;;
6505;SDS011;3286;49.858;8.768;2024-01-07T01:02:04;6.30;;;4.17;;
6505;SDS011;3286;49.858;8.768;2024-01-07T01:04:33;4.43;;;3.50;;
6505;SDS011;3286;49.858;8.768;2024-01-07T01:07:01;7.30;;;3.43;;
6505;SDS011;3286;49.858;8.768;2024-01-07T01:09:28;4.27;;;3.50;;
6505;SDS011;3286;49.858;8.768;2024-01-07T01:11:54;7.43;;;3.57;;
6505;SDS011;3286;49.858;8.768;2024-01-07T01:14:21;4.90;;;3.37;;
6505;SDS011;3286;49.858;8.768;2024-01-07T01:16:48;6.63;;;3.30;;
6505;SDS011;3286;49.858;8.768;2024-01-07T01:19:15;6.73;;;3.37;;
6505;SDS011;3286;49.858;8.768;2024-01-07T01:21:43;4.57;;;3.40;;
6505;SDS011;3286;49.858;8.768;2024-01-07T01:24:11;5.47;;;3.30;;
6505;SDS011;3286;49.858;8.768;2024-01-07T01:29:07;4.30;;;2.97;;
6505;SDS011;3286;49.858;8.768;2024-01-07T01:31:34;4.30;;;3.23;;
6505;SDS011;3286;49.858;8.768;2024-01-07T01:34:01;6.03;;;3.50;;
6505;SDS011;3286;49.858;8.768;2024-01-07T01:36:27;4.93;;;3.40;;
6505;SDS011;3286;49.858;8.768;2024-01-07T01:38:54;4.47;;;3.53;;
6505;SDS011;3286;49.858;8.768;2024-01-07T01:41:22;4.13;;;2.87;;
6505;SDS011;3286;49.858;8.768;2024-01-07T01:43:49;6.57;;;3.60;;
6505;SDS011;3286;49.858;8.768;2024-01-07T01:46:15;4.30;;;2.90;;
6505;SDS011;3286;49.858;8.768;2024-01-07T01:48:42;4.87;;;3.40;;
6505;SDS011;3286;49.858;8.768;2024-01-07T01:51:09;5.03;;;3.70;;
6505;SDS011;3286;49.858;8.768;2024-01-07T01:53:36;6.20;;;3.20;;
6505;SDS011;3286;49.858;8.768;2024-01-07T01:56:04;4.83;;;3.30;;
6505;SDS011;3286;49.858;8.768;2024-01-07T01:58:33;5.57;;;3.53;;
6505;SDS011;3286;49.858;8.768;2024-01-07T02:00:59;3.90;;;2.90;;
6505;SDS011;3286;49.858;8.768;2024-01-07T02:03:26;6.00;;;3.33;;
6505;SDS011;3286;49.858;8.768;2024-01-07T02:05:53;5.73;;;3.50;;
6505;SDS011;3286;49.858;8.768;2024-01-07T02:08:20;6.37;;;3.67;;
6505;SDS011;3286;49.858;8.768;2024-01-07T02:10:47;5.57;;;3.17;;
6505;SDS011;3286;49.858;8.768;2024-01-07T02:13:14;4.97;;;3.30;;
6505;SDS011;3286;49.858;8.768;2024-01-07T02:15:42;4.37;;;3.17;;
6505;SDS011;3286;49.858;8.768;2024-01-07T02:18:09;5.57;;;3.60;;
6505;SDS011;3286;49.858;8.768;2024-01-07T02:20:35;4.50;;;3.07;;
6505;SDS011;3286;49.858;8.768;2024-01-07T02:23:02;5.07;;;2.80;;
6505;SDS011;3286;49.858;8.768;2024-01-07T02:25:34;3.87;;;2.90;;
6505;SDS011;3286;49.858;8.768;2024-01-07T02:28:01;5.13;;;3.20;;
6505;SDS011;3286;49.858;8.768;2024-01-07T02:30:33;4.70;;;3.23;;
6505;SDS011;3286;49.858;8.768;2024-01-07T02:33:03;4.53;;;3.23;;
6505;SDS011;3286;49.858;8.768;2024-01-07T02:35:31;8.30;;;3.50;;
6505;SDS011;3286;49.858;8.768;2024-01-07T02:37:57;5.80;;;3.80;;
6505;SDS011;3286;49.858;8.768;2024-01-07T02:40:24;4.30;;;3.20;;
6505;SDS011;3286;49.858;8.768;2024-01-07T02:42:52;5.30;;;3.17;;
6505;SDS011;3286;49.858;8.768;2024-01-07T02:45:19;4.27;;;3.23;;
6505;SDS011;3286;49.858;8.768;2024-01-07T02:47:45;4.20;;;3.23;;
6505;SDS011;3286;49.858;8.768;2024-01-07T02:50:13;5.90;;;3.17;;
6505;SDS011;3286;49.858;8.768;2024-01-07T02:52:41;5.30;;;3.50;;
6505;SDS011;3286;49.858;8.768;2024-01-07T02:55:08;7.00;;;3.10;;
6505;SDS011;3286;49.858;8.768;2024-01-07T02:57:35;4.77;;;3.03;;
6505;SDS011;3286;49.858;8.768;2024-01-07T03:00:03;4.97;;;3.07;;
6505;SDS011;3286;49.858;8.768;2024-01-07T03:02:31;4.63;;;3.13;;
6505;SDS011;3286;49.858;8.768;2024-01-07T03:04:57;5.37;;;3.30;;
6505;SDS011;3286;49.858;8.768;2024-01-07T03:07:24;4.37;;;3.07;;
6505;SDS011;3286;49.858;8.768;2024-01-07T03:09:51;3.93;;;2.83;;
6505;SDS011;3286;49.858;8.768;2024-01-07T03:12:17;3.67;;;2.80;;
6505;SDS011;3286;49.858;8.768;2024-01-07T03:14:44;5.27;;;3.10;;
6505;SDS011;3286;49.858;8.768;2024-01-07T03:17:12;4.30;;;2.90;;
6505;SDS011;3286;49.858;8.768;2024-01-07T03:19:42;4.30;;;2.93;;
6505;SDS011;3286;49.858;8.768;2024-01-07T03:22:08;4.10;;;2.67;;
6505;SDS011;3286;49.858;8.768;2024-01-07T03:24:35;4.60;;;2.97;;
6505;SDS011;3286;49.858;8.768;2024-01-07T03:27:02;6.00;;;3.13;;
6505;SDS011;3286;49.858;8.768;2024-01-07T03:29:28;3.67;;;2.60;;
6505;SDS011;3286;49.858;8.768;2024-01-07T03:31:55;4.47;;;3.00;;
6505;SDS011;3286;49.858;8.768;2024-01-07T03:34:26;4.13;;;3.07;;
6505;SDS011;3286;49.858;8.768;2024-01-07T03:36:52;4.20;;;2.93;;
6505;SDS011;3286;49.858;8.768;2024-01-07T03:39:19;3.73;;;2.77;;
6505;SDS011;3286;49.858;8.768;2024-01-07T03:41:46;4.83;;;2.77;;
6505;SDS011;3286;49.858;8.768;2024-01-07T03:44:12;3.87;;;2.83;;
6505;SDS011;3286;49.858;8.768;2024-01-07T03:46:39;3.10;;;2.50;;
6505;SDS011;3286;49.858;8.768;2024-01-07T03:49:06;6.03;;;3.00;;
6505;SDS011;3286;49.858;8.768;2024-01-07T03:51:34;4.43;;;3.17;;
6505;SDS011;3286;49.858;8.768;2024-01-07T03:54:00;5.47;;;3.10;;
6505;SDS011;3286;49.858;8.768;2024-01-07T03:56:27;5.83;;;3.20;;
6505;SDS011;3286;49.858;8.768;2024-01-07T03:58:54;4.73;;;2.90;;
6505;SDS011;3286;49.858;8.768;2024-01-07T04:01:20;3.33;;;2.53;;
6505;SDS011;3286;49.858;8.768;2024-01-07T04:03:47;4.53;;;2.87;;
6505;SDS011;3286;49.858;8.768;2024-01-07T04:06:13;6.67;;;3.20;;
6505;SDS011;3286;49.858;8.768;2024-01-07T04:08:41;7.40;;;3.03;;
6505;SDS011;3286;49.858;8.768;2024-01-07T04:11:08;4.57;;;3.03;;
6505;SDS011;3286;49.858;8.768;2024-01-07T04:13:37;3.30;;;2.70;;
6505;SDS011;3286;49.858;8.768;2024-01-07T04:16:04;5.67;;;3.27;;
6505;SDS011;3286;49.858;8.768;2024-01-07T04:18:34;8.37;;;2.97;;
6505;SDS011;3286;49.858;8.768;2024-01-07T04:21:01;6.27;;;3.30;;
6505;SDS011;3286;49.858;8.768;2024-01-07T04:23:27;5.37;;;3.30;;
6505;SDS011;3286;49.858;8.768;2024-01-07T04:25:55;5.47;;;3.20;;
6505;SDS011;3286;49.858;8.768;2024-01-07T04:28:22;4.13;;;2.87;;
6505;SDS011;3286;49.858;8.768;2024-01-07T04:30:48;3.70;;;2.87;;
6505;SDS011;3286;49.858;8.768;2024-01-07T04:33:15;5.03;;;3.50;;
6505;SDS011;3286;49.858;8.768;2024-01-07T04:35:42;6.13;;;3.37;;
6505;SDS011;3286;49.858;8.768;2024-01-07T04:38:08;7.27;;;3.40;;
6505;SDS011;3286;49.858;8.768;2024-01-07T04:40:53;6.57;;;4.00;;
6505;SDS011;3286;49.858;8.768;2024-01-07T04:43:22;5.53;;;3.63;;
6505;SDS011;3286;49.858;8.768;2024-01-07T04:45:48;8.63;;;3.57;;
6505;SDS011;3286;49.858;8.768;2024-01-07T04:48:15;5.00;;;3.60;;
6505;SDS011;3286;49.858;8.768;2024-01-07T04:50:41;5.60;;;3.33;;
6505;SDS011;3286;49.858;8.768;2024-01-07T04:53:08;6.23;;;4.13;;
6505;SDS011;3286;49.858;8.768;2024-01-07T04:55:35;6.93;;;4.27;;
6505;SDS011;3286;49.858;8.768;2024-01-07T04:58:02;7.53;;;4.27;;
6505;SDS011;3286;49.858;8.768;2024-01-07T05:00:31;5.27;;;3.97;;
6505;SDS011;3286;49.858;8.768;2024-01-07T05:02:58;6.23;;;3.90;;
6505;SDS011;3286;49.858;8.768;2024-01-07T05:05:24;6.47;;;3.77;;
6505;SDS011;3286;49.858;8.768;2024-01-07T05:07:51;8.73;;;4.67;;
6505;SDS011;3286;49.858;8.768;2024-01-07T05:10:17;8.33;;;4.57;;
6505;SDS011;3286;49.858;8.768;2024-01-07T05:12:44;7.70;;;4.00;;
6505;SDS011;3286;49.858;8.768;2024-01-07T05:15:11;6.90;;;4.13;;
6505;SDS011;3286;49.858;8.768;2024-01-07T05:17:39;6.67;;;3.87;;
6505;SDS011;3286;49.858;8.768;2024-01-07T05:20:06;9.90;;;4.70;;
6505;SDS011;3286;49.858;8.768;2024-01-07T05:22:34;9.00;;;4.40;;
6505;SDS011;3286;49.858;8.768;2024-01-07T05:25:00;8.67;;;4.13;;
6505;SDS011;3286;49.858;8.768;2024-01-07T05:27:27;7.33;;;4.80;;
6505;SDS011;3286;49.858;8.768;2024-01-07T05:29:53;7.90;;;4.23;;
6505;SDS011;3286;49.858;8.768;2024-01-07T05:32:21;9.10;;;4.50;;
6505;SDS011;3286;49.858;8.768;2024-01-07T05:34:50;7.00;;;4.80;;
6505;SDS011;3286;49.858;8.768;2024-01-07T05:37:16;8.80;;;5.07;;
6505;SDS011;3286;49.858;8.768;2024-01-07T05:39:43;8.13;;;4.90;;
6505;SDS011;3286;49.858;8.768;2024-01-07T05:42:10;8.90;;;4.60;;
6505;SDS011;3286;49.858;8.768;2024-01-07T05:44:36;7.33;;;5.07;;
6505;SDS011;3286;49.858;8.768;2024-01-07T05:47:03;9.67;;;5.43;;
6505;SDS011;3286;49.858;8.768;2024-01-07T05:49:30;9.20;;;5.33;;
6505;SDS011;3286;49.858;8.768;2024-01-07T05:51:58;10.17;;;5.07;;
6505;SDS011;3286;49.858;8.768;2024-01-07T05:54:25;8.87;;;5.27;;
6505;SDS011;3286;49.858;8.768;2024-01-07T05:56:51;8.47;;;5.50;;
6505;SDS011;3286;49.858;8.768;2024-01-07T05:59:18;11.47;;;5.23;;
6505;SDS011;3286;49.858;8.768;2024-01-07T06:01:45;9.00;;;5.07;;
6505;SDS011;3286;49.858;8.768;2024-01-07T06:04:10;10.37;;;6.10;;
6505;SDS011;3286;49.858;8.768;2024-01-07T06:06:37;10.00;;;5.90;;
6505;SDS011;3286;49.858;8.768;2024-01-07T06:09:05;10.87;;;6.10;;
6505;SDS011;3286;49.858;8.768;2024-01-07T06:11:32;11.30;;;5.67;;
6505;SDS011;3286;49.858;8.768;2024-01-07T06:13:58;14.13;;;6.23;;
6505;SDS011;3286;49.858;8.768;2024-01-07T06:16:25;8.37;;;5.07;;
6505;SDS011;3286;49.858;8.768;2024-01-07T06:18:51;11.60;;;5.97;;
6505;SDS011;3286;49.858;8.768;2024-01-07T06:21:18;10.23;;;5.53;;
6505;SDS011;3286;49.858;8.768;2024-01-07T06:23:45;11.33;;;5.63;;
6505;SDS011;3286;49.858;8.768;2024-01-07T06:26:22;9.33;;;6.03;;
6505;SDS011;3286;49.858;8.768;2024-01-07T06:28:48;9.70;;;5.97;;
6505;SDS011;3286;49.858;8.768;2024-01-07T06:31:15;11.80;;;6.40;;
6505;SDS011;3286;49.858;8.768;2024-01-07T06:33:41;10.70;;;5.60;;
6505;SDS011;3286;49.858;8.768;2024-01-07T06:36:08;10.17;;;6.00;;
6505;SDS011;3286;49.858;8.768;2024-01-07T06:38:35;8.33;;;5.20;;
6505;SDS011;3286;49.858;8.768;2024-01-07T06:41:01;8.23;;;5.23;;
6505;SDS011;3286;49.858;8.768;2024-01-07T06:43:31;9.27;;;5.17;;
6505;SDS011;3286;49.858;8.768;2024-01-07T06:45:58;8.50;;;4.97;;
6505;SDS011;3286;49.858;8.768;2024-01-07T06:48:25;7.90;;;4.73;;
6505;SDS011;3286;49.858;8.768;2024-01-07T06:50:51;7.97;;;5.10;;
6505;SDS011;3286;49.858;8.768;2024-01-07T06:53:18;8.73;;;5.07;;
6505;SDS011;3286;49.858;8.768;2024-01-07T06:55:45;9.03;;;5.90;;
6505;SDS011;3286;49.858;8.768;2024-01-07T06:58:11;9.93;;;5.47;;
6505;SDS011;3286;49.858;8.768;2024-01-07T07:00:39;5.63;;;4.33;;
6505;SDS011;3286;49.858;8.768;2024-01-07T07:03:06;7.90;;;5.00;;
6505;SDS011;3286;49.858;8.768;2024-01-07T07:05:33;9.60;;;5.40;;
6505;SDS011;3286;49.858;8.768;2024-01-07T07:07:59;8.40;;;4.70;;
6505;SDS011;3286;49.858;8.768;2024-01-07T07:10:37;10.10;;;4.70;;
6505;SDS011;3286;49.858;8.768;2024-01-07T07:13:04;7.27;;;4.63;;
6505;SDS011;3286;49.858;8.768;2024-01-07T07:15:30;12.03;;;4.80;;
6505;SDS011;3286;49.858;8.768;2024-01-07T07:17:58;7.97;;;4.77;;
6505;SDS011;3286;49.858;8.768;2024-01-07T07:20:25;6.90;;;4.20;;
6505;SDS011;3286;49.858;8.768;2024-01-07T07:22:51;9.03;;;4.73;;
6505;SDS011;3286;49.858;8.768;2024-01-07T07:25:18;9.97;;;4.70;;
6505;SDS011;3286;49.858;8.768;2024-01-07T07:27:45;9.23;;;4.90;;
6505;SDS011;3286;49.858;8.768;2024-01-07T07:30:22;9.53;;;4.40;;
6505;SDS011;3286;49.858;8.768;2024-01-07T07:32:49;7.00;;;4.50;;
6505;SDS011;3286;49.858;8.768;2024-01-07T07:35:17;7.57;;;4.33;;
6505;SDS011;3286;49.858;8.768;2024-01-07T07:37:44;8.47;;;4.43;;
6505;SDS011;3286;49.858;8.768;2024-01-07T07:40:11;7.93;;;4.43;;
6505;SDS011;3286;49.858;8.768;2024-01-07T07:42:39;9.13;;;4.63;;
6505;SDS011;3286;49.858;8.768;2024-01-07T07:45:06;6.23;;;4.33;;
6505;SDS011;3286;49.858;8.768;2024-01-07T07:47:33;5.77;;;4.03;;
6505;SDS011;3286;49.858;8.768;2024-01-07T07:49:59;7.57;;;4.30;;
6505;SDS011;3286;49.858;8.768;2024-01-07T07:52:28;7.10;;;3.80;;
6505;SDS011;3286;49.858;8.768;2024-01-07T07:54:56;7.40;;;4.67;;
6505;SDS011;3286;49.858;8.768;2024-01-07T07:57:24;7.93;;;4.73;;
6505;SDS011;3286;49.858;8.768;2024-01-07T07:59:51;9.00;;;5.10;;
6505;SDS011;3286;49.858;8.768;2024-01-07T08:02:18;8.53;;;4.73;;
6505;SDS011;3286;49.858;8.768;2024-01-07T08:04:44;8.80;;;4.40;;
6505;SDS011;3286;49.858;8.768;2024-01-07T08:07:11;7.93;;;4.40;;
6505;SDS011;3286;49.858;8.768;2024-01-07T08:09:39;6.60;;;4.27;;
6505;SDS011;3286;49.858;8.768;2024-01-07T08:12:06;12.97;;;5.33;;
6505;SDS011;3286;49.858;8.768;2024-01-07T08:14:33;9.10;;;4.83;;
6505;SDS011;3286;49.858;8.768;2024-01-07T08:17:00;5.53;;;4.03;;
6505;SDS011;3286;49.858;8.768;2024-01-07T08:19:29;11.30;;;5.30;;
6505;SDS011;3286;49.858;8.768;2024-01-07T08:21:56;10.37;;;4.83;;
6505;SDS011;3286;49.858;8.768;2024-01-07T08:24:23;7.23;;;4.30;;
6505;SDS011;3286;49.858;8.768;2024-01-07T08:26:51;7.03;;;4.50;;
6505;SDS011;3286;49.858;8.768;2024-01-07T08:29:17;8.33;;;4.73;;
6505;SDS011;3286;49.858;8.768;2024-01-07T08:31:44;9.07;;;4.80;;
6505;SDS011;3286;49.858;8.768;2024-01-07T08:34:11;9.37;;;5.27;;
6505;SDS011;3286;49.858;8.768;2024-01-07T08:36:38;8.33;;;4.77;;
6505;SDS011;3286;49.858;8.768;2024-01-07T08:39:05;7.30;;;4.40;;
6505;SDS011;3286;49.858;8.768;2024-01-07T08:41:31;8.30;;;4.33;;
6505;SDS011;3286;49.858;8.768;2024-01-07T08:43:59;10.87;;;5.10;;
6505;SDS011;3286;49.858;8.768;2024-01-07T08:46:26;7.60;;;4.37;;
6505;SDS011;3286;49.858;8.768;2024-01-07T08:48:52;7.47;;;4.67;;
6505;SDS011;3286;49.858;8.768;2024-01-07T08:51:19;7.77;;;4.50;;
6505;SDS011;3286;49.858;8.768;2024-01-07T08:53:46;5.17;;;3.80;;
6505;SDS011;3286;49.858;8.768;2024-01-07T08:56:12;11.83;;;5.23;;
6505;SDS011;3286;49.858;8.768;2024-01-07T08:58:40;7.40;;;4.63;;
6505;SDS011;3286;49.858;8.768;2024-01-07T09:01:08;7.10;;;4.17;;
6505;SDS011;3286;49.858;8.768;2024-01-07T09:03:35;6.17;;;3.67;;
6505;SDS011;3286;49.858;8.768;2024-01-07T09:06:03;6.00;;;4.30;;
6505;SDS011;3286;49.858;8.768;2024-01-07T09:08:30;6.30;;;4.00;;
6505;SDS011;3286;49.858;8.768;2024-01-07T09:10:56;5.67;;;4.23;;
6505;SDS011;3286;49.858;8.768;2024-01-07T09:13:25;4.57;;;3.50;;
6505;SDS011;3286;49.858;8.768;2024-01-07T09:15:52;7.50;;;4.07;;
6505;SDS011;3286;49.858;8.768;2024-01-07T09:18:20;5.73;;;3.80;;
6505;SDS011;3286;49.858;8.768;2024-01-07T09:20:46;6.97;;;3.87;;
6505;SDS011;3286;49.858;8.768;2024-01-07T09:23:13;5.10;;;3.70;;
6505;SDS011;3286;49.858;8.768;2024-01-07T09:25:40;6.43;;;4.13;;
6505;SDS011;3286;49.858;8.768;2024-01-07T09:28:07;6.37;;;3.50;;
6505;SDS011;3286;49.858;8.768;2024-01-07T09:30:34;3.93;;;3.27;;
6505;SDS011;3286;49.858;8.768;2024-01-07T09:33:00;5.63;;;3.33;;
6505;SDS011;3286;49.858;8.768;2024-01-07T09:35:28;7.83;;;3.97;;
6505;SDS011;3286;49.858;8.768;2024-01-07T09:37:55;5.43;;;3.80;;
6505;SDS011;3286;49.858;8.768;2024-01-07T09:40:22;6.47;;;3.80;;
6505;SDS011;3286;49.858;8.768;2024-01-07T09:42:48;5.63;;;3.67;;
6505;SDS011;3286;49.858;8.768;2024-01-07T09:45:16;3.73;;;2.90;;
6505;SDS011;3286;49.858;8.768;2024-01-07T09:47:44;4.60;;;3.63;;
6505;SDS011;3286;49.858;8.768;2024-01-07T09:50:16;4.43;;;3.20;;
6505;SDS011;3286;49.858;8.768;2024-01-07T09:52:44;14.27;;;5.97;;
6505;SDS011;3286;49.858;8.768;2024-01-07T09:55:12;3.90;;;2.90;;
6505;SDS011;3286;49.858;8.768;2024-01-07T09:57:47;3.90;;;2.93;;
6505;SDS011;3286;49.858;8.768;2024-01-07T10:00:14;4.77;;;3.50;;
6505;SDS011;3286;49.858;8.768;2024-01-07T10:02:43;5.57;;;3.47;;
6505;SDS011;3286;49.858;8.768;2024-01-07T10:05:09;3.73;;;3.27;;
6505;SDS011;3286;49.858;8.768;2024-01-07T10:07:36;4.83;;;3.10;;
6505;SDS011;3286;49.858;8.768;2024-01-07T10:10:11;5.03;;;3.37;;
6505;SDS011;3286;49.858;8.768;2024-01-07T10:12:39;4.13;;;3.27;;
6505;SDS011;3286;49.858;8.768;2024-01-07T10:17:51;5.73;;;3.50;;
6505;SDS011;3286;49.858;8.768;2024-01-07T10:20:21;4.97;;;3.43;;
6505;SDS011;3286;49.858;8.768;2024-01-07T10:22:49;7.10;;;4.10;;
6505;SDS011;3286;49.858;8.768;2024-01-07T10:25:18;6.37;;;3.70;;
6505;SDS011;3286;49.858;8.768;2024-01-07T10:27:44;4.93;;;3.27;;
6505;SDS011;3286;49.858;8.768;2024-01-07T10:30:12;6.63;;;3.60;;
6505;SDS011;3286;49.858;8.768;2024-01-07T10:32:39;5.10;;;3.47;;
6505;SDS011;3286;49.858;8.768;2024-01-07T10:35:08;4.23;;;3.00;;
6505;SDS011;3286;49.858;8.768;2024-01-07T10:37:39;5.70;;;3.47;;
6505;SDS011;3286;49.858;8.768;2024-01-07T10:40:13;6.17;;;3.50;;
6505;SDS011;3286;49.858;8.768;2024-01-07T10:42:41;5.23;;;3.60;;
6505;SDS011;3286;49.858;8.768;2024-01-07T10:45:10;5.00;;;3.47;;
6505;SDS011;3286;49.858;8.768;2024-01-07T10:47:37;6.47;;;4.17;;
6505;SDS011;3286;49.858;8.768;2024-01-07T10:50:06;6.83;;;3.80;;
6505;SDS011;3286;49.858;8.768;2024-01-07T10:52:38;5.37;;;3.70;;
6505;SDS011;3286;49.858;8.768;2024-01-07T10:55:08;6.33;;;4.40;;
6505;SDS011;3286;49.858;8.768;2024-01-07T10:57:38;16.40;;;5.23;;
6505;SDS011;3286;49.858;8.768;2024-01-07T11:00:12;6.43;;;3.70;;
6505;SDS011;3286;49.858;8.768;2024-01-07T11:02:48;7.00;;;3.90;;
6505;SDS011;3286;49.858;8.768;2024-01-07T11:05:20;5.93;;;3.90;;
6505;SDS011;3286;49.858;8.768;2024-01-07T11:07:55;6.63;;;3.67;;
6505;SDS011;3286;49.858;8.768;2024-01-07T11:10:31;7.20;;;4.27;;
6505;SDS011;3286;49.858;8.768;2024-01-07T11:13:06;7.73;;;3.93;;
6505;SDS011;3286;49.858;8.768;2024-01-07T11:15:51;8.23;;;4.60;;
6505;SDS011;3286;49.858;8.768;2024-01-07T11:18:19;6.37;;;3.57;;
6505;SDS011;3286;49.858;8.768;2024-01-07T11:20:46;5.47;;;3.97;;
6505;SDS011;3286;49.858;8.768;2024-01-07T11:23:25;5.70;;;3.97;;
6505;SDS011;3286;49.858;8.768;2024-01-07T11:25:53;6.00;;;3.70;;
6505;SDS011;3286;49.858;8.768;2024-01-07T11:28:23;5.57;;;3.23;;
6505;SDS011;3286;49.858;8.768;2024-01-07T11:31:15;7.37;;;4.00;;
6505;SDS011;3286;49.858;8.768;2024-01-07T11:33:51;8.30;;;3.43;;
6505;SDS011;3286;49.858;8.768;2024-01-07T11:36:20;6.03;;;3.70;;
6505;SDS011;3286;49.858;8.768;2024-01-07T11:38:48;4.87;;;3.63;;
6505;SDS011;3286;49.858;8.768;2024-01-07T11:41:15;13.33;;;3.60;;
6505;SDS011;3286;49.858;8.768;2024-01-07T11:43:55;7.10;;;4.37;;
6505;SDS011;3286;49.858;8.768;2024-01-07T11:46:24;6.70;;;3.87;;
6505;SDS011;3286;49.858;8.768;2024-01-07T11:48:53;6.20;;;3.30;;
6505;SDS011;3286;49.858;8.768;2024-01-07T11:51:23;5.90;;;3.43;;
6505;SDS011;3286;49.858;8.768;2024-01-07T11:53:50;5.63;;;3.70;;
6505;SDS011;3286;49.858;8.768;2024-01-07T11:56:24;6.10;;;3.43;;
6505;SDS011;3286;49.858;8.768;2024-01-07T11:58:51;5.00;;;3.27;;
6505;SDS011;3286;49.858;8.768;2024-01-07T12:01:21;4.27;;;3.13;;
6505;SDS011;3286;49.858;8.768;2024-01-07T12:03:48;6.30;;;3.40;;
6505;SDS011;3286;49.858;8.768;2024-01-07T12:06:15;5.67;;;3.53;;
6505;SDS011;3286;49.858;8.768;2024-01-07T12:08:42;6.07;;;3.20;;
6505;SDS011;3286;49.858;8.768;2024-01-07T12:11:10;5.43;;;3.43;;
6505;SDS011;3286;49.858;8.768;2024-01-07T12:13:38;5.37;;;3.70;;
6505;SDS011;3286;49.858;8.768;2024-01-07T12:16:07;8.07;;;4.13;;
6505;SDS011;3286;49.858;8.768;2024-01-07T12:18:37;5.83;;;3.63;;
6505;SDS011;3286;49.858;8.768;2024-01-07T12:21:04;13.60;;;5.23;;
6505;SDS011;3286;49.858;8.768;2024-01-07T12:23:33;7.23;;;3.50;;
6505;SDS011;3286;49.858;8.768;2024-01-07T12:26:08;7.30;;;3.60;;
6505;SDS011;3286;49.858;8.768;2024-01-07T12:28:41;6.97;;;3.50;;
6505;SDS011;3286;49.858;8.768;2024-01-07T12:31:12;4.37;;;3.47;;
6505;SDS011;3286;49.858;8.768;2024-01-07T12:33:40;4.70;;;3.27;;
6505;SDS011;3286;49.858;8.768;2024-01-07T12:36:08;6.77;;;3.47;;
6505;SDS011;3286;49.858;8.768;2024-01-07T12:38:36;5.93;;;3.50;;
6505;SDS011;3286;49.858;8.768;2024-01-07T12:41:03;6.77;;;3.87;;
6505;SDS011;3286;49.858;8.768;2024-01-07T12:43:30;7.40;;;3.70;;
6505;SDS011;3286;49.858;8.768;2024-01-07T12:45:57;7.17;;;3.93;;
6505;SDS011;3286;49.858;8.768;2024-01-07T12:48:29;6.23;;;3.60;;
6505;SDS011;3286;49.858;8.768;2024-01-07T12:51:01;7.47;;;4.43;;
6505;SDS011;3286;49.858;8.768;2024-01-07T12:53:28;7.20;;;3.80;;
6505;SDS011;3286;49.858;8.768;2024-01-07T12:55:55;5.83;;;3.70;;
6505;SDS011;3286;49.858;8.768;2024-01-07T12:58:21;6.57;;;3.97;;
6505;SDS011;3286;49.858;8.768;2024-01-07T13:00:48;4.80;;;2.83;;
6505;SDS011;3286;49.858;8.768;2024-01-07T13:03:15;8.47;;;4.33;;
6505;SDS011;3286;49.858;8.768;2024-01-07T13:05:43;5.47;;;2.97;;
6505;SDS011;3286;49.858;8.768;2024-01-07T13:08:14;6.70;;;4.13;;
6505;SDS011;3286;49.858;8.768;2024-01-07T13:10:43;4.77;;;3.03;;
6505;SDS011;3286;49.858;8.768;2024-01-07T13:13:09;4.50;;;2.90;;
6505;SDS011;3286;49.858;8.768;2024-01-07T13:15:40;7.20;;;4.10;;
6505;SDS011;3286;49.858;8.768;2024-01-07T13:18:07;6.37;;;3.63;;
6505;SDS011;3286;49.858;8.768;2024-01-07T13:20:35;4.33;;;2.70;;
6505;SDS011;3286;49.858;8.768;2024-01-07T13:23:03;4.97;;;3.40;;
6505;SDS011;3286;49.858;8.768;2024-01-07T13:25:31;5.57;;;3.37;;
6505;SDS011;3286;49.858;8.768;2024-01-07T13:27:58;10.43;;;3.57;;
6505;SDS011;3286;49.858;8.768;2024-01-07T13:33:14;8.33;;;3.40;;
6505;SDS011;3286;49.858;8.768;2024-01-07T13:35:42;7.87;;;3.93;;
6505;SDS011;3286;49.858;8.768;2024-01-07T13:38:11;4.93;;;3.20;;
6505;SDS011;3286;49.858;8.768;2024-01-07T13:40:39;5.73;;;3.80;;
6505;SDS011;3286;49.858;8.768;2024-01-07T13:43:15;5.73;;;3.43;;
6505;SDS011;3286;49.858;8.768;2024-01-07T13:45:41;4.67;;;2.93;;
6505;SDS011;3286;49.858;8.768;2024-01-07T13:48:08;6.93;;;3.53;;
6505;SDS011;3286;49.858;8.768;2024-01-07T13:50:35;6.70;;;3.73;;
6505;SDS011;3286;49.858;8.768;2024-01-07T13:53:02;5.27;;;2.87;;
6505;SDS011;3286;49.858;8.768;2024-01-07T13:55:28;5.50;;;3.27;;
6505;SDS011;3286;49.858;8.768;2024-01-07T13:57:56;7.93;;;3.37;;
6505;SDS011;3286;49.858;8.768;2024-01-07T14:00:24;4.10;;;3.20;;
6505;SDS011;3286;49.858;8.768;2024-01-07T14:02:50;5.00;;;3.27;;
6505;SDS011;3286;49.858;8.768;2024-01-07T14:05:17;7.20;;;3.80;;
6505;SDS011;3286;49.858;8.768;2024-01-07T14:07:43;6.20;;;3.00;;
6505;SDS011;3286;49.858;8.768;2024-01-07T14:10:10;5.93;;;3.23;;
6505;SDS011;3286;49.858;8.768;2024-01-07T14:12:37;4.10;;;2.80;;
6505;SDS011;3286;49.858;8.768;2024-01-07T14:15:05;7.70;;;3.43;;
6505;SDS011;3286;49.858;8.768;2024-01-07T14:17:33;5.13;;;3.30;;
6505;SDS011;3286;49.858;8.768;2024-01-07T14:22:46;4.83;;;3.13;;
6505;SDS011;3286;49.858;8.768;2024-01-07T14:25:13;2.90;;;2.27;;
6505;SDS011;3286;49.858;8.768;2024-01-07T14:27:40;4.10;;;2.63;;
6505;SDS011;3286;49.858;8.768;2024-01-07T14:30:08;3.90;;;2.90;;
6505;SDS011;3286;49.858;8.768;2024-01-07T14:32:35;4.50;;;2.70;;
6505;SDS011;3286;49.858;8.768;2024-01-07T14:35:02;4.53;;;2.70;;
6505;SDS011;3286;49.858;8.768;2024-01-07T14:37:29;4.50;;;2.47;;
6505;SDS011;3286;49.858;8.768;2024-01-07T14:39:56;4.13;;;2.73;;
6505;SDS011;3286;49.858;8.768;2024-01-07T14:42:22;3.23;;;2.13;;
6505;SDS011;3286;49.858;8.768;2024-01-07T14:44:49;5.83;;;2.30;;
6505;SDS011;3286;49.858;8.768;2024-01-07T14:47:17;5.87;;;2.80;;
6505;SDS011;3286;49.858;8.768;2024-01-07T14:49:44;2.50;;;2.10;;
6505;SDS011;3286;49.858;8.768;2024-01-07T14:52:10;3.10;;;1.80;;
6505;SDS011;3286;49.858;8.768;2024-01-07T14:54:37;2.97;;;2.10;;
6505;SDS011;3286;49.858;8.768;2024-01-07T14:57:04;2.27;;;2.03;;
6505;SDS011;3286;49.858;8.768;2024-01-07T14:59:33;1.93;;;1.67;;
6505;SDS011;3286;49.858;8.768;2024-01-07T15:02:01;2.17;;;1.87;;
6505;SDS011;3286;49.858;8.768;2024-01-07T15:04:29;2.73;;;2.17;;
6505;SDS011;3286;49.858;8.768;2024-01-07T15:06:55;4.27;;;2.00;;
6505;SDS011;3286;49.858;8.768;2024-01-07T15:09:22;1.77;;;1.40;;
6505;SDS011;3286;49.858;8.768;2024-01-07T15:11:49;5.47;;;1.80;;
6505;SDS011;3286;49.858;8.768;2024-01-07T15:14:15;3.00;;;1.80;;
6505;SDS011;3286;49.858;8.768;2024-01-07T15:16:43;1.70;;;1.50;;
6505;SDS011;3286;49.858;8.768;2024-01-07T15:25:08;2.57;;;1.77;;
6505;SDS011;3286;49.858;8.768;2024-01-07T15:27:35;2.70;;;1.90;;
6505;SDS011;3286;49.858;8.768;2024-01-07T15:30:02;2.67;;;1.70;;
6505;SDS011;3286;49.858;8.768;2024-01-07T15:32:30;2.83;;;2.07;;
6505;SDS011;3286;49.858;8.768;2024-01-07T15:34:57;2.33;;;1.63;;